sensor_id;sensor_type;location;lat;lon;timestamp;P1;durP1;ratioP1;P2;durP2;ratioP2
68757;SDS011;55747;51.998;4.466;2023-02-28T00:00:46;4.85;;;2.78;;
68757;SDS011;55747;51.998;4.466;2023-02-28T00:03:11;5.70;;;2.75;;
68757;SDS011;55747;51.998;4.466;2023-02-28T00:05:36;10.30;;;3.13;;
68757;SDS011;55747;51.998;4.466;2023-02-28T00:08:02;8.25;;;3.08;;
68757;SDS011;55747;51.998;4.466;2023-02-28T00:10:28;4.53;;;2.90;;
68757;SDS011;55747;51.998;4.466;2023-02-28T00:12:56;6.97;;;2.90;;
68757;SDS011;55747;51.998;4.466;2023-02-28T00:15:24;6.07;;;2.80;;
68757;SDS011;55747;51.998;4.466;2023-02-28T00:17:50;4.55;;;3.00;;
68757;SDS011;55747;51.998;4.466;2023-02-28T00:20:15;6.15;;;3.00;;
68757;SDS011;55747;51.998;4.466;2023-02-28T00:22:41;5.40;;;3.10;;
68757;SDS011;55747;51.998;4.466;2023-02-28T00:25:09;7.63;;;3.95;;
68757;SDS011;55747;51.998;4.466;2023-02-28T00:27:36;5.20;;;3.10;;
68757;SDS011;55747;51.998;4.466;2023-02-28T00:30:02;11.27;;;3.47;;
68757;SDS011;55747;51.998;4.466;2023-02-28T00:32:28;5.60;;;2.85;;
68757;SDS011;55747;51.998;4.466;2023-02-28T00:34:54;4.93;;;2.72;;
68757;SDS011;55747;51.998;4.466;2023-02-28T00:37:20;4.82;;;2.92;;
68757;SDS011;55747;51.998;4.466;2023-02-28T00:39:45;6.15;;;3.00;;
68757;SDS011;55747;51.998;4.466;2023-02-28T00:42:10;4.43;;;2.70;;
68757;SDS011;55747;51.998;4.466;2023-02-28T00:44:36;6.75;;;3.08;;
68757;SDS011;55747;51.998;4.466;2023-02-28T00:47:01;7.40;;;3.00;;
68757;SDS011;55747;51.998;4.466;2023-02-28T00:49:26;5.30;;;2.90;;
68757;SDS011;55747;51.998;4.466;2023-02-28T00:51:53;8.68;;;3.10;;
68757;SDS011;55747;51.998;4.466;2023-02-28T00:54:20;7.70;;;3.28;;
68757;SDS011;55747;51.998;4.466;2023-02-28T00:56:46;7.32;;;3.38;;
68757;SDS011;55747;51.998;4.466;2023-02-28T00:59:15;7.00;;;3.42;;
68757;SDS011;55747;51.998;4.466;2023-02-28T01:01:42;8.32;;;3.63;;
68757;SDS011;55747;51.998;4.466;2023-02-28T01:04:11;8.43;;;4.10;;
68757;SDS011;55747;51.998;4.466;2023-02-28T01:06:36;8.50;;;4.50;;
68757;SDS011;55747;51.998;4.466;2023-02-28T01:09:02;12.15;;;4.47;;
68757;SDS011;55747;51.998;4.466;2023-02-28T01:11:29;11.00;;;4.22;;
68757;SDS011;55747;51.998;4.466;2023-02-28T01:13:55;6.55;;;4.18;;
68757;SDS011;55747;51.998;4.466;2023-02-28T01:16:20;8.35;;;4.55;;
68757;SDS011;55747;51.998;4.466;2023-02-28T01:18:45;8.55;;;4.35;;
68757;SDS011;55747;51.998;4.466;2023-02-28T01:21:12;9.23;;;4.45;;
68757;SDS011;55747;51.998;4.466;2023-02-28T01:23:40;9.88;;;4.25;;
68757;SDS011;55747;51.998;4.466;2023-02-28T01:26:06;7.93;;;4.00;;
68757;SDS011;55747;51.998;4.466;2023-02-28T01:28:33;8.30;;;4.13;;
68757;SDS011;55747;51.998;4.466;2023-02-28T01:30:58;6.78;;;3.85;;
68757;SDS011;55747;51.998;4.466;2023-02-28T01:33:24;9.27;;;4.22;;
68757;SDS011;55747;51.998;4.466;2023-02-28T01:35:56;8.20;;;4.22;;
68757;SDS011;55747;51.998;4.466;2023-02-28T01:38:23;9.60;;;4.25;;
68757;SDS011;55747;51.998;4.466;2023-02-28T01:40:48;10.20;;;4.82;;
68757;SDS011;55747;51.998;4.466;2023-02-28T01:43:22;9.80;;;4.50;;
68757;SDS011;55747;51.998;4.466;2023-02-28T01:45:49;9.25;;;4.32;;
68757;SDS011;55747;51.998;4.466;2023-02-28T01:48:15;11.57;;;4.75;;
68757;SDS011;55747;51.998;4.466;2023-02-28T01:50:43;12.75;;;4.97;;
68757;SDS011;55747;51.998;4.466;2023-02-28T01:53:12;10.82;;;4.97;;
68757;SDS011;55747;51.998;4.466;2023-02-28T01:55:41;10.17;;;5.70;;
68757;SDS011;55747;51.998;4.466;2023-02-28T01:58:11;12.32;;;5.97;;
68757;SDS011;55747;51.998;4.466;2023-02-28T02:00:36;11.63;;;5.93;;
68757;SDS011;55747;51.998;4.466;2023-02-28T02:03:08;12.63;;;4.97;;
68757;SDS011;55747;51.998;4.466;2023-02-28T02:05:38;9.75;;;4.57;;
68757;SDS011;55747;51.998;4.466;2023-02-28T02:08:05;12.60;;;4.00;;
68757;SDS011;55747;51.998;4.466;2023-02-28T02:13:32;7.22;;;4.10;;
68757;SDS011;55747;51.998;4.466;2023-02-28T02:25:08;7.88;;;4.80;;
68757;SDS011;55747;51.998;4.466;2023-02-28T02:35:47;8.43;;;5.10;;
68757;SDS011;55747;51.998;4.466;2023-02-28T02:38:27;11.25;;;5.20;;
68757;SDS011;55747;51.998;4.466;2023-02-28T02:41:28;11.85;;;5.18;;
68757;SDS011;55747;51.998;4.466;2023-02-28T02:44:11;11.82;;;5.13;;
68757;SDS011;55747;51.998;4.466;2023-02-28T02:46:43;9.60;;;5.22;;
68757;SDS011;55747;51.998;4.466;2023-02-28T02:49:19;9.80;;;5.38;;
68757;SDS011;55747;51.998;4.466;2023-02-28T02:51:49;11.32;;;5.30;;
68757;SDS011;55747;51.998;4.466;2023-02-28T02:54:22;7.25;;;5.40;;
68757;SDS011;55747;51.998;4.466;2023-02-28T02:56:53;9.65;;;5.75;;
68757;SDS011;55747;51.998;4.466;2023-02-28T02:59:24;12.25;;;5.88;;
68757;SDS011;55747;51.998;4.466;2023-02-28T03:01:54;9.68;;;5.22;;
68757;SDS011;55747;51.998;4.466;2023-02-28T03:04:23;12.63;;;5.25;;
68757;SDS011;55747;51.998;4.466;2023-02-28T03:06:52;11.15;;;5.35;;
68757;SDS011;55747;51.998;4.466;2023-02-28T03:09:21;7.60;;;5.05;;
68757;SDS011;55747;51.998;4.466;2023-02-28T03:11:47;8.23;;;4.97;;
68757;SDS011;55747;51.998;4.466;2023-02-28T03:23:08;12.05;;;5.40;;
68757;SDS011;55747;51.998;4.466;2023-02-28T03:28:31;11.23;;;4.68;;
68757;SDS011;55747;51.998;4.466;2023-02-28T03:33:40;11.68;;;5.32;;
68757;SDS011;55747;51.998;4.466;2023-02-28T03:36:12;9.73;;;5.65;;
68757;SDS011;55747;51.998;4.466;2023-02-28T03:38:51;9.73;;;5.50;;
68757;SDS011;55747;51.998;4.466;2023-02-28T03:41:29;9.20;;;5.75;;
68757;SDS011;55747;51.998;4.466;2023-02-28T03:44:02;13.02;;;5.55;;
68757;SDS011;55747;51.998;4.466;2023-02-28T03:46:33;9.40;;;6.00;;
68757;SDS011;55747;51.998;4.466;2023-02-28T03:49:08;10.97;;;6.80;;
68757;SDS011;55747;51.998;4.466;2023-02-28T03:51:40;14.38;;;7.63;;
68757;SDS011;55747;51.998;4.466;2023-02-28T03:54:09;16.92;;;7.45;;
68757;SDS011;55747;51.998;4.466;2023-02-28T03:56:43;14.25;;;8.48;;
68757;SDS011;55747;51.998;4.466;2023-02-28T03:59:20;15.93;;;8.23;;
68757;SDS011;55747;51.998;4.466;2023-02-28T04:01:52;15.13;;;7.32;;
68757;SDS011;55747;51.998;4.466;2023-02-28T04:04:19;13.57;;;7.25;;
68757;SDS011;55747;51.998;4.466;2023-02-28T04:06:45;11.38;;;6.95;;
68757;SDS011;55747;51.998;4.466;2023-02-28T04:09:12;10.57;;;6.60;;
68757;SDS011;55747;51.998;4.466;2023-02-28T04:11:40;12.82;;;7.18;;
68757;SDS011;55747;51.998;4.466;2023-02-28T04:14:07;16.58;;;7.50;;
68757;SDS011;55747;51.998;4.466;2023-02-28T04:16:35;14.63;;;7.05;;
68757;SDS011;55747;51.998;4.466;2023-02-28T04:19:02;10.63;;;6.53;;
68757;SDS011;55747;51.998;4.466;2023-02-28T04:21:43;10.65;;;7.15;;
68757;SDS011;55747;51.998;4.466;2023-02-28T04:24:11;11.43;;;7.27;;
68757;SDS011;55747;51.998;4.466;2023-02-28T04:26:42;14.38;;;7.30;;
68757;SDS011;55747;51.998;4.466;2023-02-28T04:29:10;13.00;;;7.30;;
68757;SDS011;55747;51.998;4.466;2023-02-28T04:31:36;17.05;;;7.25;;
68757;SDS011;55747;51.998;4.466;2023-02-28T04:34:02;13.13;;;7.00;;
68757;SDS011;55747;51.998;4.466;2023-02-28T04:36:28;12.45;;;7.10;;
68757;SDS011;55747;51.998;4.466;2023-02-28T04:38:53;10.77;;;6.60;;
68757;SDS011;55747;51.998;4.466;2023-02-28T04:41:19;15.05;;;6.90;;
68757;SDS011;55747;51.998;4.466;2023-02-28T04:43:47;11.35;;;6.55;;
68757;SDS011;55747;51.998;4.466;2023-02-28T04:46:13;10.05;;;6.32;;
68757;SDS011;55747;51.998;4.466;2023-02-28T04:48:39;9.20;;;6.15;;
68757;SDS011;55747;51.998;4.466;2023-02-28T04:51:05;11.48;;;6.32;;
68757;SDS011;55747;51.998;4.466;2023-02-28T04:53:33;9.80;;;6.15;;
68757;SDS011;55747;51.998;4.466;2023-02-28T04:55:59;8.68;;;6.13;;
68757;SDS011;55747;51.998;4.466;2023-02-28T04:58:25;11.90;;;6.13;;
68757;SDS011;55747;51.998;4.466;2023-02-28T05:00:53;10.68;;;6.20;;
68757;SDS011;55747;51.998;4.466;2023-02-28T05:03:19;11.43;;;5.85;;
68757;SDS011;55747;51.998;4.466;2023-02-28T05:05:48;10.65;;;6.05;;
68757;SDS011;55747;51.998;4.466;2023-02-28T05:08:13;10.43;;;5.63;;
68757;SDS011;55747;51.998;4.466;2023-02-28T05:10:39;11.88;;;6.10;;
68757;SDS011;55747;51.998;4.466;2023-02-28T05:13:04;12.90;;;6.07;;
68757;SDS011;55747;51.998;4.466;2023-02-28T05:15:30;11.68;;;6.00;;
68757;SDS011;55747;51.998;4.466;2023-02-28T05:17:55;10.63;;;6.75;;
68757;SDS011;55747;51.998;4.466;2023-02-28T05:20:21;11.00;;;6.70;;
68757;SDS011;55747;51.998;4.466;2023-02-28T05:22:46;10.25;;;6.43;;
68757;SDS011;55747;51.998;4.466;2023-02-28T05:25:12;8.93;;;6.43;;
68757;SDS011;55747;51.998;4.466;2023-02-28T05:27:41;11.27;;;6.57;;
68757;SDS011;55747;51.998;4.466;2023-02-28T05:30:07;13.10;;;6.63;;
68757;SDS011;55747;51.998;4.466;2023-02-28T05:32:35;9.95;;;6.63;;
68757;SDS011;55747;51.998;4.466;2023-02-28T05:35:04;9.90;;;6.38;;
68757;SDS011;55747;51.998;4.466;2023-02-28T05:37:30;12.85;;;6.43;;
68757;SDS011;55747;51.998;4.466;2023-02-28T05:39:55;10.18;;;6.28;;
68757;SDS011;55747;51.998;4.466;2023-02-28T05:42:20;14.30;;;7.18;;
68757;SDS011;55747;51.998;4.466;2023-02-28T05:44:46;9.68;;;6.78;;
68757;SDS011;55747;51.998;4.466;2023-02-28T05:47:11;11.02;;;6.53;;
68757;SDS011;55747;51.998;4.466;2023-02-28T05:49:40;12.93;;;7.10;;
68757;SDS011;55747;51.998;4.466;2023-02-28T05:52:06;14.40;;;7.28;;
68757;SDS011;55747;51.998;4.466;2023-02-28T05:54:31;16.25;;;7.18;;
68757;SDS011;55747;51.998;4.466;2023-02-28T05:56:56;11.80;;;7.88;;
68757;SDS011;55747;51.998;4.466;2023-02-28T05:59:21;13.35;;;7.70;;
68757;SDS011;55747;51.998;4.466;2023-02-28T06:01:47;9.82;;;6.80;;
68757;SDS011;55747;51.998;4.466;2023-02-28T06:04:16;14.20;;;7.85;;
68757;SDS011;55747;51.998;4.466;2023-02-28T06:06:44;13.48;;;7.60;;
68757;SDS011;55747;51.998;4.466;2023-02-28T06:09:10;12.95;;;6.97;;
68757;SDS011;55747;51.998;4.466;2023-02-28T06:11:36;13.32;;;7.82;;
68757;SDS011;55747;51.998;4.466;2023-02-28T06:14:02;15.63;;;7.10;;
68757;SDS011;55747;51.998;4.466;2023-02-28T06:16:28;10.77;;;6.90;;
68757;SDS011;55747;51.998;4.466;2023-02-28T06:18:56;13.30;;;7.82;;
68757;SDS011;55747;51.998;4.466;2023-02-28T06:21:23;15.02;;;7.45;;
68757;SDS011;55747;51.998;4.466;2023-02-28T06:23:49;12.52;;;7.07;;
68757;SDS011;55747;51.998;4.466;2023-02-28T06:26:14;12.93;;;7.53;;
68757;SDS011;55747;51.998;4.466;2023-02-28T06:28:40;10.05;;;6.25;;
68757;SDS011;55747;51.998;4.466;2023-02-28T06:31:09;10.50;;;6.43;;
68757;SDS011;55747;51.998;4.466;2023-02-28T06:33:36;11.13;;;6.25;;
68757;SDS011;55747;51.998;4.466;2023-02-28T06:36:03;12.27;;;6.90;;
68757;SDS011;55747;51.998;4.466;2023-02-28T06:38:29;9.85;;;5.68;;
68757;SDS011;55747;51.998;4.466;2023-02-28T06:40:55;6.63;;;5.28;;
68757;SDS011;55747;51.998;4.466;2023-02-28T06:43:21;12.95;;;5.65;;
68757;SDS011;55747;51.998;4.466;2023-02-28T06:45:48;8.35;;;4.95;;
68757;SDS011;55747;51.998;4.466;2023-02-28T06:48:13;6.65;;;4.82;;
68757;SDS011;55747;51.998;4.466;2023-02-28T06:50:39;8.70;;;4.60;;
68757;SDS011;55747;51.998;4.466;2023-02-28T06:53:04;7.95;;;4.35;;
68757;SDS011;55747;51.998;4.466;2023-02-28T06:55:30;5.90;;;4.30;;
68757;SDS011;55747;51.998;4.466;2023-02-28T06:57:56;6.03;;;4.13;;
68757;SDS011;55747;51.998;4.466;2023-02-28T07:00:22;8.77;;;4.10;;
68757;SDS011;55747;51.998;4.466;2023-02-28T07:02:47;8.25;;;4.07;;
68757;SDS011;55747;51.998;4.466;2023-02-28T07:05:13;9.05;;;4.10;;
68757;SDS011;55747;51.998;4.466;2023-02-28T07:07:38;8.38;;;4.50;;
68757;SDS011;55747;51.998;4.466;2023-02-28T07:10:08;11.52;;;4.40;;
68757;SDS011;55747;51.998;4.466;2023-02-28T07:12:36;8.10;;;4.57;;
68757;SDS011;55747;51.998;4.466;2023-02-28T07:15:02;11.30;;;5.13;;
68757;SDS011;55747;51.998;4.466;2023-02-28T07:17:28;7.78;;;5.28;;
68757;SDS011;55747;51.998;4.466;2023-02-28T07:19:53;7.53;;;4.70;;
68757;SDS011;55747;51.998;4.466;2023-02-28T07:22:18;7.63;;;4.50;;
68757;SDS011;55747;51.998;4.466;2023-02-28T07:24:47;8.48;;;5.20;;
68757;SDS011;55747;51.998;4.466;2023-02-28T07:27:12;10.82;;;5.93;;
68757;SDS011;55747;51.998;4.466;2023-02-28T07:29:50;11.35;;;5.90;;
68757;SDS011;55747;51.998;4.466;2023-02-28T07:32:17;9.13;;;6.35;;
68757;SDS011;55747;51.998;4.466;2023-02-28T07:34:43;10.18;;;6.80;;
68757;SDS011;55747;51.998;4.466;2023-02-28T07:37:09;13.15;;;7.10;;
68757;SDS011;55747;51.998;4.466;2023-02-28T07:39:34;13.40;;;7.63;;
68757;SDS011;55747;51.998;4.466;2023-02-28T07:42:00;12.35;;;7.00;;
68757;SDS011;55747;51.998;4.466;2023-02-28T07:44:28;10.48;;;7.57;;
68757;SDS011;55747;51.998;4.466;2023-02-28T07:46:54;11.27;;;7.28;;
68757;SDS011;55747;51.998;4.466;2023-02-28T07:49:19;11.00;;;7.65;;
68757;SDS011;55747;51.998;4.466;2023-02-28T07:51:44;16.00;;;8.43;;
68757;SDS011;55747;51.998;4.466;2023-02-28T07:54:09;13.82;;;8.30;;
68757;SDS011;55747;51.998;4.466;2023-02-28T07:56:35;13.00;;;7.72;;
68757;SDS011;55747;51.998;4.466;2023-02-28T07:59:00;13.77;;;8.77;;
68757;SDS011;55747;51.998;4.466;2023-02-28T08:01:26;16.05;;;8.63;;
68757;SDS011;55747;51.998;4.466;2023-02-28T08:03:52;13.82;;;8.70;;
68757;SDS011;55747;51.998;4.466;2023-02-28T08:06:20;11.43;;;8.38;;
68757;SDS011;55747;51.998;4.466;2023-02-28T08:08:47;14.18;;;8.40;;
68757;SDS011;55747;51.998;4.466;2023-02-28T08:11:13;14.05;;;8.48;;
68757;SDS011;55747;51.998;4.466;2023-02-28T08:13:39;14.20;;;8.75;;
68757;SDS011;55747;51.998;4.466;2023-02-28T08:16:04;15.73;;;9.02;;
68757;SDS011;55747;51.998;4.466;2023-02-28T08:18:30;14.02;;;8.88;;
68757;SDS011;55747;51.998;4.466;2023-02-28T08:20:55;13.88;;;8.98;;
68757;SDS011;55747;51.998;4.466;2023-02-28T08:23:21;13.38;;;8.45;;
68757;SDS011;55747;51.998;4.466;2023-02-28T08:25:56;14.57;;;8.98;;
68757;SDS011;55747;51.998;4.466;2023-02-28T08:28:21;14.65;;;9.05;;
68757;SDS011;55747;51.998;4.466;2023-02-28T08:30:47;14.38;;;8.90;;
68757;SDS011;55747;51.998;4.466;2023-02-28T08:33:17;13.27;;;9.27;;
68757;SDS011;55747;51.998;4.466;2023-02-28T08:35:42;13.77;;;9.18;;
68757;SDS011;55747;51.998;4.466;2023-02-28T08:38:07;14.15;;;9.52;;
68757;SDS011;55747;51.998;4.466;2023-02-28T08:40:36;13.73;;;9.45;;
68757;SDS011;55747;51.998;4.466;2023-02-28T08:43:01;13.10;;;9.40;;
68757;SDS011;55747;51.998;4.466;2023-02-28T08:45:27;15.15;;;9.65;;
68757;SDS011;55747;51.998;4.466;2023-02-28T08:47:53;14.45;;;9.73;;
68757;SDS011;55747;51.998;4.466;2023-02-28T08:50:22;15.75;;;10.07;;
68757;SDS011;55747;51.998;4.466;2023-02-28T08:52:49;14.55;;;10.38;;
68757;SDS011;55747;51.998;4.466;2023-02-28T08:55:14;14.45;;;10.43;;
68757;SDS011;55747;51.998;4.466;2023-02-28T08:57:42;16.25;;;10.60;;
68757;SDS011;55747;51.998;4.466;2023-02-28T09:00:08;17.58;;;11.00;;
68757;SDS011;55747;51.998;4.466;2023-02-28T09:02:35;16.27;;;10.75;;
68757;SDS011;55747;51.998;4.466;2023-02-28T09:05:00;18.27;;;11.32;;
68757;SDS011;55747;51.998;4.466;2023-02-28T09:07:26;17.80;;;11.38;;
68757;SDS011;55747;51.998;4.466;2023-02-28T09:09:51;14.98;;;10.82;;
68757;SDS011;55747;51.998;4.466;2023-02-28T09:12:20;14.63;;;10.73;;
68757;SDS011;55747;51.998;4.466;2023-02-28T09:14:46;16.17;;;10.52;;
68757;SDS011;55747;51.998;4.466;2023-02-28T09:17:11;13.80;;;10.43;;
68757;SDS011;55747;51.998;4.466;2023-02-28T09:19:37;16.70;;;10.02;;
68757;SDS011;55747;51.998;4.466;2023-02-28T09:22:02;12.60;;;8.93;;
68757;SDS011;55747;51.998;4.466;2023-02-28T09:24:27;13.38;;;8.88;;
68757;SDS011;55747;51.998;4.466;2023-02-28T09:26:56;14.43;;;9.93;;
68757;SDS011;55747;51.998;4.466;2023-02-28T09:29:21;13.07;;;9.77;;
68757;SDS011;55747;51.998;4.466;2023-02-28T09:31:46;14.23;;;10.15;;
68757;SDS011;55747;51.998;4.466;2023-02-28T09:34:12;15.30;;;9.90;;
68757;SDS011;55747;51.998;4.466;2023-02-28T09:36:37;14.95;;;10.00;;
68757;SDS011;55747;51.998;4.466;2023-02-28T09:39:06;14.07;;;9.65;;
68757;SDS011;55747;51.998;4.466;2023-02-28T09:41:36;14.65;;;9.77;;
68757;SDS011;55747;51.998;4.466;2023-02-28T09:44:10;15.15;;;9.57;;
68757;SDS011;55747;51.998;4.466;2023-02-28T09:46:43;13.00;;;9.60;;
68757;SDS011;55747;51.998;4.466;2023-02-28T09:49:18;15.93;;;9.65;;
68757;SDS011;55747;51.998;4.466;2023-02-28T09:51:50;12.15;;;9.15;;
68757;SDS011;55747;51.998;4.466;2023-02-28T09:54:37;12.93;;;8.30;;
68757;SDS011;55747;51.998;4.466;2023-02-28T09:57:10;11.35;;;7.30;;
68757;SDS011;55747;51.998;4.466;2023-02-28T10:05:05;6.95;;;5.38;;
68757;SDS011;55747;51.998;4.466;2023-02-28T10:07:50;9.90;;;5.25;;
68757;SDS011;55747;51.998;4.466;2023-02-28T10:15:24;9.18;;;5.30;;
68757;SDS011;55747;51.998;4.466;2023-02-28T10:18:27;10.02;;;5.75;;
68757;SDS011;55747;51.998;4.466;2023-02-28T10:20:47;9.85;;;5.50;;
68757;SDS011;55747;51.998;4.466;2023-02-28T10:25:57;8.55;;;5.20;;
68757;SDS011;55747;51.998;4.466;2023-02-28T10:28:25;7.57;;;5.30;;
68757;SDS011;55747;51.998;4.466;2023-02-28T10:30:53;7.82;;;4.80;;
68757;SDS011;55747;51.998;4.466;2023-02-28T10:33:24;6.78;;;4.32;;
68757;SDS011;55747;51.998;4.466;2023-02-28T10:35:55;8.90;;;4.18;;
68757;SDS011;55747;51.998;4.466;2023-02-28T10:38:25;6.25;;;4.13;;
68757;SDS011;55747;51.998;4.466;2023-02-28T10:41:03;7.68;;;4.15;;
68757;SDS011;55747;51.998;4.466;2023-02-28T10:43:33;6.65;;;3.97;;
68757;SDS011;55747;51.998;4.466;2023-02-28T10:48:30;6.05;;;4.00;;
68757;SDS011;55747;51.998;4.466;2023-02-28T10:51:14;6.18;;;3.63;;
68757;SDS011;55747;51.998;4.466;2023-02-28T10:53:48;5.95;;;3.70;;
68757;SDS011;55747;51.998;4.466;2023-02-28T10:56:19;6.60;;;3.72;;
68757;SDS011;55747;51.998;4.466;2023-02-28T11:01:47;4.20;;;3.33;;
68757;SDS011;55747;51.998;4.466;2023-02-28T11:06:44;5.45;;;3.20;;
68757;SDS011;55747;51.998;4.466;2023-02-28T11:09:24;4.65;;;3.08;;
68757;SDS011;55747;51.998;4.466;2023-02-28T11:12:04;5.68;;;3.00;;
68757;SDS011;55747;51.998;4.466;2023-02-28T11:15:21;5.68;;;2.95;;
68757;SDS011;55747;51.998;4.466;2023-02-28T11:17:27;4.38;;;2.95;;
68757;SDS011;55747;51.998;4.466;2023-02-28T11:20:00;4.70;;;3.00;;
68757;SDS011;55747;51.998;4.466;2023-02-28T11:22:29;4.00;;;3.00;;
68757;SDS011;55747;51.998;4.466;2023-02-28T11:25:08;3.50;;;2.60;;
68757;SDS011;55747;51.998;4.466;2023-02-28T11:27:42;4.38;;;3.00;;
68757;SDS011;55747;51.998;4.466;2023-02-28T11:32:50;3.20;;;2.83;;
68757;SDS011;55747;51.998;4.466;2023-02-28T11:35:32;3.05;;;2.53;;
68757;SDS011;55747;51.998;4.466;2023-02-28T11:38:04;3.53;;;2.72;;
68757;SDS011;55747;51.998;4.466;2023-02-28T11:46:23;3.33;;;2.30;;
68757;SDS011;55747;51.998;4.466;2023-02-28T11:57:46;4.45;;;2.40;;
68757;SDS011;55747;51.998;4.466;2023-02-28T12:00:14;3.13;;;2.60;;
68757;SDS011;55747;51.998;4.466;2023-02-28T12:06:00;7.80;;;2.60;;
68757;SDS011;55747;51.998;4.466;2023-02-28T12:17:53;3.38;;;2.40;;
68757;SDS011;55747;51.998;4.466;2023-02-28T12:20:46;3.50;;;2.33;;
68757;SDS011;55747;51.998;4.466;2023-02-28T12:28:30;2.95;;;2.65;;
68757;SDS011;55747;51.998;4.466;2023-02-28T12:31:12;2.75;;;2.50;;
68757;SDS011;55747;51.998;4.466;2023-02-28T12:33:45;3.05;;;2.50;;
68757;SDS011;55747;51.998;4.466;2023-02-28T12:36:15;2.80;;;2.50;;
68757;SDS011;55747;51.998;4.466;2023-02-28T12:39:07;3.25;;;2.33;;
68757;SDS011;55747;51.998;4.466;2023-02-28T12:44:08;2.83;;;2.50;;
68757;SDS011;55747;51.998;4.466;2023-02-28T12:46:42;4.63;;;2.80;;
68757;SDS011;55747;51.998;4.466;2023-02-28T12:49:18;4.30;;;2.50;;
68757;SDS011;55747;51.998;4.466;2023-02-28T12:51:51;2.88;;;2.35;;
68757;SDS011;55747;51.998;4.466;2023-02-28T12:56:52;4.00;;;3.33;;
68757;SDS011;55747;51.998;4.466;2023-02-28T12:59:37;2.83;;;2.40;;
68757;SDS011;55747;51.998;4.466;2023-02-28T13:02:17;2.60;;;2.40;;
68757;SDS011;55747;51.998;4.466;2023-02-28T13:05:06;2.38;;;2.17;;
68757;SDS011;55747;51.998;4.466;2023-02-28T13:10:39;3.60;;;2.45;;
68757;SDS011;55747;51.998;4.466;2023-02-28T13:13:16;3.00;;;2.42;;
68757;SDS011;55747;51.998;4.466;2023-02-28T13:16:01;5.07;;;2.60;;
68757;SDS011;55747;51.998;4.466;2023-02-28T13:18:32;2.85;;;2.45;;
68757;SDS011;55747;51.998;4.466;2023-02-28T13:21:02;2.72;;;2.40;;
68757;SDS011;55747;51.998;4.466;2023-02-28T13:34:31;2.90;;;2.42;;
68757;SDS011;55747;51.998;4.466;2023-02-28T13:39:48;2.53;;;2.10;;
68757;SDS011;55747;51.998;4.466;2023-02-28T13:47:42;3.22;;;2.30;;
68757;SDS011;55747;51.998;4.466;2023-02-28T13:55:45;3.42;;;2.70;;
68757;SDS011;55747;51.998;4.466;2023-02-28T14:06:50;3.30;;;2.50;;
68757;SDS011;55747;51.998;4.466;2023-02-28T14:09:38;2.85;;;2.65;;
68757;SDS011;55747;51.998;4.466;2023-02-28T14:18:21;2.90;;;2.60;;
68757;SDS011;55747;51.998;4.466;2023-02-28T14:20:52;3.10;;;2.50;;
68757;SDS011;55747;51.998;4.466;2023-02-28T14:36:37;4.60;;;2.97;;
68757;SDS011;55747;51.998;4.466;2023-02-28T14:39:14;3.47;;;2.55;;
68757;SDS011;55747;51.998;4.466;2023-02-28T14:41:43;4.57;;;2.90;;
68757;SDS011;55747;51.998;4.466;2023-02-28T14:44:14;3.13;;;2.65;;
68757;SDS011;55747;51.998;4.466;2023-02-28T14:46:46;3.63;;;2.55;;
68757;SDS011;55747;51.998;4.466;2023-02-28T14:49:21;4.40;;;2.55;;
68757;SDS011;55747;51.998;4.466;2023-02-28T14:54:53;3.20;;;2.60;;
68757;SDS011;55747;51.998;4.466;2023-02-28T14:57:30;4.35;;;2.90;;
68757;SDS011;55747;51.998;4.466;2023-02-28T15:02:49;4.43;;;2.50;;
68757;SDS011;55747;51.998;4.466;2023-02-28T15:07:43;4.18;;;2.50;;
68757;SDS011;55747;51.998;4.466;2023-02-28T15:10:19;3.00;;;2.15;;
68757;SDS011;55747;51.998;4.466;2023-02-28T15:12:53;2.83;;;2.40;;
68757;SDS011;55747;51.998;4.466;2023-02-28T15:15:25;4.22;;;2.40;;
68757;SDS011;55747;51.998;4.466;2023-02-28T15:17:55;3.08;;;2.50;;
68757;SDS011;55747;51.998;4.466;2023-02-28T15:20:23;3.78;;;2.60;;
68757;SDS011;55747;51.998;4.466;2023-02-28T15:22:50;7.25;;;2.70;;
68757;SDS011;55747;51.998;4.466;2023-02-28T15:25:18;3.13;;;2.63;;
68757;SDS011;55747;51.998;4.466;2023-02-28T15:27:47;3.40;;;2.35;;
68757;SDS011;55747;51.998;4.466;2023-02-28T15:33:18;3.50;;;2.80;;
68757;SDS011;55747;51.998;4.466;2023-02-28T15:35:51;3.03;;;2.70;;
68757;SDS011;55747;51.998;4.466;2023-02-28T15:40:45;3.10;;;2.60;;
68757;SDS011;55747;51.998;4.466;2023-02-28T15:45:51;4.68;;;2.72;;
68757;SDS011;55747;51.998;4.466;2023-02-28T15:48:21;3.05;;;2.40;;
68757;SDS011;55747;51.998;4.466;2023-02-28T15:50:56;3.50;;;2.63;;
68757;SDS011;55747;51.998;4.466;2023-02-28T15:53:31;4.32;;;2.58;;
68757;SDS011;55747;51.998;4.466;2023-02-28T15:56:13;2.85;;;2.25;;
68757;SDS011;55747;51.998;4.466;2023-02-28T15:58:55;2.80;;;2.33;;
68757;SDS011;55747;51.998;4.466;2023-02-28T16:01:27;3.13;;;2.53;;
68757;SDS011;55747;51.998;4.466;2023-02-28T16:03:56;2.83;;;2.42;;
68757;SDS011;55747;51.998;4.466;2023-02-28T16:09:05;3.10;;;2.72;;
68757;SDS011;55747;51.998;4.466;2023-02-28T16:11:34;3.65;;;2.92;;
68757;SDS011;55747;51.998;4.466;2023-02-28T16:14:03;2.92;;;2.60;;
68757;SDS011;55747;51.998;4.466;2023-02-28T16:16:29;4.68;;;3.00;;
68757;SDS011;55747;51.998;4.466;2023-02-28T16:18:56;4.25;;;3.00;;
68757;SDS011;55747;51.998;4.466;2023-02-28T16:21:21;5.03;;;2.90;;
68757;SDS011;55747;51.998;4.466;2023-02-28T16:23:46;4.57;;;3.17;;
68757;SDS011;55747;51.998;4.466;2023-02-28T16:26:16;5.60;;;2.92;;
68757;SDS011;55747;51.998;4.466;2023-02-28T16:28:45;4.00;;;3.10;;
68757;SDS011;55747;51.998;4.466;2023-02-28T16:31:11;4.10;;;3.25;;
68757;SDS011;55747;51.998;4.466;2023-02-28T16:33:41;3.72;;;3.15;;
68757;SDS011;55747;51.998;4.466;2023-02-28T16:36:09;3.90;;;3.15;;
68757;SDS011;55747;51.998;4.466;2023-02-28T16:38:38;4.70;;;3.28;;
68757;SDS011;55747;51.998;4.466;2023-02-28T16:41:03;4.47;;;3.33;;
68757;SDS011;55747;51.998;4.466;2023-02-28T16:43:30;4.88;;;3.30;;
68757;SDS011;55747;51.998;4.466;2023-02-28T16:45:56;3.90;;;3.15;;
68757;SDS011;55747;51.998;4.466;2023-02-28T16:48:23;4.65;;;3.22;;
68757;SDS011;55747;51.998;4.466;2023-02-28T16:50:48;4.00;;;3.08;;
68757;SDS011;55747;51.998;4.466;2023-02-28T16:53:14;4.35;;;3.50;;
68757;SDS011;55747;51.998;4.466;2023-02-28T16:55:40;4.78;;;3.33;;
68757;SDS011;55747;51.998;4.466;2023-02-28T16:58:05;4.90;;;3.67;;
68757;SDS011;55747;51.998;4.466;2023-02-28T17:00:31;4.95;;;3.47;;
68757;SDS011;55747;51.998;4.466;2023-02-28T17:02:57;5.05;;;3.72;;
68757;SDS011;55747;51.998;4.466;2023-02-28T17:05:33;4.32;;;3.65;;
68757;SDS011;55747;51.998;4.466;2023-02-28T17:08:02;4.93;;;3.70;;
68757;SDS011;55747;51.998;4.466;2023-02-28T17:10:28;7.65;;;3.90;;
68757;SDS011;55747;51.998;4.466;2023-02-28T17:12:54;4.95;;;3.55;;
68757;SDS011;55747;51.998;4.466;2023-02-28T17:15:20;6.25;;;4.22;;
68757;SDS011;55747;51.998;4.466;2023-02-28T17:17:45;5.38;;;4.13;;
68757;SDS011;55747;51.998;4.466;2023-02-28T17:20:18;7.32;;;4.47;;
68757;SDS011;55747;51.998;4.466;2023-02-28T17:22:49;5.78;;;4.18;;
68757;SDS011;55747;51.998;4.466;2023-02-28T17:25:15;5.32;;;4.38;;
68757;SDS011;55747;51.998;4.466;2023-02-28T17:27:40;7.38;;;4.20;;
68757;SDS011;55747;51.998;4.466;2023-02-28T17:30:16;4.75;;;4.05;;
68757;SDS011;55747;51.998;4.466;2023-02-28T17:32:44;5.82;;;4.30;;
68757;SDS011;55747;51.998;4.466;2023-02-28T17:35:12;5.88;;;4.40;;
68757;SDS011;55747;51.998;4.466;2023-02-28T17:37:38;6.75;;;4.68;;
68757;SDS011;55747;51.998;4.466;2023-02-28T17:40:05;6.78;;;4.50;;
68757;SDS011;55747;51.998;4.466;2023-02-28T17:42:31;7.22;;;4.60;;